Terminal Aerodrome Forecast
Issued by NWS Charleston, WV

Current Version | Previous Version | Graphics & Text | Print | Product List | Glossary On
Versions: 1 2 3 4 5 6 7 8 9 10 11 12 13 14 15 16 17 18 19 20 21 22
000
FTUS41 KRLX 101739
TAFPKB
TAF
KPKB 101739Z 1018/1118 25011G18KT P6SM OVC030
     FM102200 22008G14KT P6SM BKN070
     FM110900 23005KT P6SM BKN024
     FM111300 24003KT P6SM SCT024=

USA.gov is the U.S. government's official web portal to all federal, state and local government web resources and services.